sensor_id;sensor_type;location;lat;lon;timestamp;P1;durP1;ratioP1;P2;durP2;ratioP2
16254;SDS011;8235;52.198;9.904;2022-07-22T00:00:34;7.63;;;6.93;;
16254;SDS011;8235;52.198;9.904;2022-07-22T00:03:00;7.73;;;7.13;;
16254;SDS011;8235;52.198;9.904;2022-07-22T00:05:27;8.10;;;7.30;;
16254;SDS011;8235;52.198;9.904;2022-07-22T00:07:53;7.80;;;7.10;;
16254;SDS011;8235;52.198;9.904;2022-07-22T00:10:20;8.37;;;7.63;;
16254;SDS011;8235;52.198;9.904;2022-07-22T00:12:46;7.67;;;6.80;;
16254;SDS011;8235;52.198;9.904;2022-07-22T00:15:13;9.03;;;8.23;;
16254;SDS011;8235;52.198;9.904;2022-07-22T00:17:41;9.33;;;7.97;;
16254;SDS011;8235;52.198;9.904;2022-07-22T00:20:08;8.90;;;8.13;;
16254;SDS011;8235;52.198;9.904;2022-07-22T00:22:35;7.70;;;7.00;;
16254;SDS011;8235;52.198;9.904;2022-07-22T00:25:01;9.10;;;8.30;;
16254;SDS011;8235;52.198;9.904;2022-07-22T00:27:29;8.57;;;7.80;;
16254;SDS011;8235;52.198;9.904;2022-07-22T00:29:56;8.37;;;7.63;;
16254;SDS011;8235;52.198;9.904;2022-07-22T00:32:22;8.90;;;8.10;;
16254;SDS011;8235;52.198;9.904;2022-07-22T00:34:50;9.03;;;8.33;;
16254;SDS011;8235;52.198;9.904;2022-07-22T00:37:17;13.40;;;8.30;;
16254;SDS011;8235;52.198;9.904;2022-07-22T00:39:43;9.90;;;9.10;;
16254;SDS011;8235;52.198;9.904;2022-07-22T00:42:10;9.60;;;8.80;;
16254;SDS011;8235;52.198;9.904;2022-07-22T00:44:37;10.43;;;9.37;;
16254;SDS011;8235;52.198;9.904;2022-07-22T00:47:04;10.33;;;9.43;;
16254;SDS011;8235;52.198;9.904;2022-07-22T00:49:30;11.23;;;10.23;;
16254;SDS011;8235;52.198;9.904;2022-07-22T00:51:58;11.20;;;10.07;;
16254;SDS011;8235;52.198;9.904;2022-07-22T00:54:25;11.33;;;10.33;;
16254;SDS011;8235;52.198;9.904;2022-07-22T00:56:52;11.27;;;10.27;;
16254;SDS011;8235;52.198;9.904;2022-07-22T00:59:18;13.20;;;12.03;;
16254;SDS011;8235;52.198;9.904;2022-07-22T01:01:45;14.00;;;12.60;;
16254;SDS011;8235;52.198;9.904;2022-07-22T01:04:12;12.77;;;11.67;;
16254;SDS011;8235;52.198;9.904;2022-07-22T01:06:40;12.97;;;11.70;;
16254;SDS011;8235;52.198;9.904;2022-07-22T01:09:11;12.73;;;11.63;;
16254;SDS011;8235;52.198;9.904;2022-07-22T01:11:38;12.10;;;11.00;;
16254;SDS011;8235;52.198;9.904;2022-07-22T01:14:06;12.40;;;11.37;;
16254;SDS011;8235;52.198;9.904;2022-07-22T01:16:32;11.60;;;10.50;;
16254;SDS011;8235;52.198;9.904;2022-07-22T01:18:59;12.13;;;10.80;;
16254;SDS011;8235;52.198;9.904;2022-07-22T01:21:27;12.80;;;11.70;;
16254;SDS011;8235;52.198;9.904;2022-07-22T01:23:53;12.13;;;10.93;;
16254;SDS011;8235;52.198;9.904;2022-07-22T01:26:20;12.13;;;10.97;;
16254;SDS011;8235;52.198;9.904;2022-07-22T01:28:46;13.37;;;12.17;;
16254;SDS011;8235;52.198;9.904;2022-07-22T01:31:13;11.93;;;10.90;;
16254;SDS011;8235;52.198;9.904;2022-07-22T01:33:39;12.50;;;11.50;;
16254;SDS011;8235;52.198;9.904;2022-07-22T01:36:06;12.57;;;11.40;;
16254;SDS011;8235;52.198;9.904;2022-07-22T01:38:34;13.03;;;11.73;;
16254;SDS011;8235;52.198;9.904;2022-07-22T01:41:01;11.43;;;10.43;;
16254;SDS011;8235;52.198;9.904;2022-07-22T01:43:28;11.90;;;10.73;;
16254;SDS011;8235;52.198;9.904;2022-07-22T01:45:54;11.57;;;10.47;;
16254;SDS011;8235;52.198;9.904;2022-07-22T01:48:21;11.97;;;10.93;;
16254;SDS011;8235;52.198;9.904;2022-07-22T01:50:49;11.07;;;10.13;;
16254;SDS011;8235;52.198;9.904;2022-07-22T01:53:15;12.17;;;11.00;;
16254;SDS011;8235;52.198;9.904;2022-07-22T01:55:43;13.10;;;11.83;;
16254;SDS011;8235;52.198;9.904;2022-07-22T01:58:10;13.30;;;12.03;;
16254;SDS011;8235;52.198;9.904;2022-07-22T02:00:37;12.77;;;11.53;;
16254;SDS011;8235;52.198;9.904;2022-07-22T02:03:04;12.87;;;11.67;;
16254;SDS011;8235;52.198;9.904;2022-07-22T02:05:31;14.20;;;12.80;;
16254;SDS011;8235;52.198;9.904;2022-07-22T02:07:59;14.13;;;12.73;;
16254;SDS011;8235;52.198;9.904;2022-07-22T02:10:26;14.63;;;13.30;;
16254;SDS011;8235;52.198;9.904;2022-07-22T02:12:54;15.50;;;13.93;;
16254;SDS011;8235;52.198;9.904;2022-07-22T02:15:21;17.13;;;14.53;;
16254;SDS011;8235;52.198;9.904;2022-07-22T02:17:47;14.80;;;13.40;;
16254;SDS011;8235;52.198;9.904;2022-07-22T02:20:14;15.83;;;14.27;;
16254;SDS011;8235;52.198;9.904;2022-07-22T02:22:41;16.13;;;14.43;;
16254;SDS011;8235;52.198;9.904;2022-07-22T02:25:07;13.70;;;12.20;;
16254;SDS011;8235;52.198;9.904;2022-07-22T02:27:34;16.07;;;14.47;;
16254;SDS011;8235;52.198;9.904;2022-07-22T02:30:03;14.77;;;13.37;;
16254;SDS011;8235;52.198;9.904;2022-07-22T02:32:30;16.57;;;14.90;;
16254;SDS011;8235;52.198;9.904;2022-07-22T02:34:57;16.93;;;15.17;;
16254;SDS011;8235;52.198;9.904;2022-07-22T02:37:23;16.53;;;14.93;;
16254;SDS011;8235;52.198;9.904;2022-07-22T02:39:50;17.77;;;15.87;;
16254;SDS011;8235;52.198;9.904;2022-07-22T02:42:17;15.90;;;14.40;;
16254;SDS011;8235;52.198;9.904;2022-07-22T02:44:43;14.40;;;13.03;;
16254;SDS011;8235;52.198;9.904;2022-07-22T02:47:11;13.07;;;11.87;;
16254;SDS011;8235;52.198;9.904;2022-07-22T02:49:37;11.57;;;10.57;;
16254;SDS011;8235;52.198;9.904;2022-07-22T02:52:04;10.83;;;9.90;;
16254;SDS011;8235;52.198;9.904;2022-07-22T02:54:31;10.93;;;9.83;;
16254;SDS011;8235;52.198;9.904;2022-07-22T02:56:58;11.70;;;9.63;;
16254;SDS011;8235;52.198;9.904;2022-07-22T02:59:24;9.10;;;8.20;;
16254;SDS011;8235;52.198;9.904;2022-07-22T03:01:51;11.00;;;8.70;;
16254;SDS011;8235;52.198;9.904;2022-07-22T03:04:18;9.20;;;8.20;;
16254;SDS011;8235;52.198;9.904;2022-07-22T03:06:45;11.97;;;8.07;;
16254;SDS011;8235;52.198;9.904;2022-07-22T03:09:11;8.40;;;7.60;;
16254;SDS011;8235;52.198;9.904;2022-07-22T03:11:38;8.33;;;7.53;;
16254;SDS011;8235;52.198;9.904;2022-07-22T03:14:04;9.07;;;8.10;;
16254;SDS011;8235;52.198;9.904;2022-07-22T03:16:31;8.90;;;8.00;;
16254;SDS011;8235;52.198;9.904;2022-07-22T03:18:58;10.20;;;8.90;;
16254;SDS011;8235;52.198;9.904;2022-07-22T03:21:26;10.43;;;9.33;;
16254;SDS011;8235;52.198;9.904;2022-07-22T03:23:52;9.20;;;8.23;;
16254;SDS011;8235;52.198;9.904;2022-07-22T03:26:19;8.07;;;6.43;;
16254;SDS011;8235;52.198;9.904;2022-07-22T03:28:46;8.43;;;6.70;;
16254;SDS011;8235;52.198;9.904;2022-07-22T03:31:12;7.80;;;5.83;;
16254;SDS011;8235;52.198;9.904;2022-07-22T03:33:39;7.70;;;5.90;;
16254;SDS011;8235;52.198;9.904;2022-07-22T03:36:06;6.83;;;5.67;;
16254;SDS011;8235;52.198;9.904;2022-07-22T03:38:34;6.67;;;5.40;;
16254;SDS011;8235;52.198;9.904;2022-07-22T03:41:01;7.03;;;5.67;;
16254;SDS011;8235;52.198;9.904;2022-07-22T03:43:28;6.73;;;5.83;;
16254;SDS011;8235;52.198;9.904;2022-07-22T03:45:55;6.77;;;6.07;;
16254;SDS011;8235;52.198;9.904;2022-07-22T03:48:22;6.47;;;5.80;;
16254;SDS011;8235;52.198;9.904;2022-07-22T03:50:48;7.97;;;6.77;;
16254;SDS011;8235;52.198;9.904;2022-07-22T03:53:16;8.70;;;6.97;;
16254;SDS011;8235;52.198;9.904;2022-07-22T03:55:44;7.00;;;6.40;;
16254;SDS011;8235;52.198;9.904;2022-07-22T03:58:11;7.50;;;6.77;;
16254;SDS011;8235;52.198;9.904;2022-07-22T04:00:37;8.03;;;7.23;;
16254;SDS011;8235;52.198;9.904;2022-07-22T04:03:04;8.60;;;7.40;;
16254;SDS011;8235;52.198;9.904;2022-07-22T04:05:30;7.67;;;6.97;;
16254;SDS011;8235;52.198;9.904;2022-07-22T04:07:57;8.30;;;7.27;;
16254;SDS011;8235;52.198;9.904;2022-07-22T04:10:23;8.20;;;7.40;;
16254;SDS011;8235;52.198;9.904;2022-07-22T04:12:51;8.60;;;7.63;;
16254;SDS011;8235;52.198;9.904;2022-07-22T04:15:18;10.13;;;8.70;;
16254;SDS011;8235;52.198;9.904;2022-07-22T04:17:44;9.07;;;7.40;;
16254;SDS011;8235;52.198;9.904;2022-07-22T04:20:11;9.37;;;7.53;;
16254;SDS011;8235;52.198;9.904;2022-07-22T04:22:38;8.57;;;7.63;;
16254;SDS011;8235;52.198;9.904;2022-07-22T04:25:05;8.33;;;7.33;;
16254;SDS011;8235;52.198;9.904;2022-07-22T04:27:32;7.73;;;7.03;;
16254;SDS011;8235;52.198;9.904;2022-07-22T04:30:00;7.77;;;6.97;;
16254;SDS011;8235;52.198;9.904;2022-07-22T04:32:27;8.20;;;6.43;;
16254;SDS011;8235;52.198;9.904;2022-07-22T04:34:53;7.87;;;7.07;;
16254;SDS011;8235;52.198;9.904;2022-07-22T04:37:20;8.17;;;6.70;;
16254;SDS011;8235;52.198;9.904;2022-07-22T04:39:46;7.10;;;6.37;;
16254;SDS011;8235;52.198;9.904;2022-07-22T04:42:13;7.03;;;6.33;;
16254;SDS011;8235;52.198;9.904;2022-07-22T04:44:39;10.80;;;6.50;;
16254;SDS011;8235;52.198;9.904;2022-07-22T04:47:07;6.33;;;5.83;;
16254;SDS011;8235;52.198;9.904;2022-07-22T04:49:33;6.60;;;5.90;;
16254;SDS011;8235;52.198;9.904;2022-07-22T04:52:00;6.07;;;5.47;;
16254;SDS011;8235;52.198;9.904;2022-07-22T04:54:26;6.77;;;6.07;;
16254;SDS011;8235;52.198;9.904;2022-07-22T04:56:53;6.10;;;5.50;;
16254;SDS011;8235;52.198;9.904;2022-07-22T04:59:19;6.90;;;6.27;;
16254;SDS011;8235;52.198;9.904;2022-07-22T05:01:46;6.23;;;5.47;;
16254;SDS011;8235;52.198;9.904;2022-07-22T05:04:14;6.40;;;5.80;;
16254;SDS011;8235;52.198;9.904;2022-07-22T05:06:41;6.23;;;5.63;;
16254;SDS011;8235;52.198;9.904;2022-07-22T05:09:07;5.40;;;4.90;;
16254;SDS011;8235;52.198;9.904;2022-07-22T05:11:34;5.40;;;4.90;;
16254;SDS011;8235;52.198;9.904;2022-07-22T05:14:00;6.10;;;4.63;;
16254;SDS011;8235;52.198;9.904;2022-07-22T05:16:27;5.47;;;4.97;;
16254;SDS011;8235;52.198;9.904;2022-07-22T05:18:53;6.13;;;4.80;;
16254;SDS011;8235;52.198;9.904;2022-07-22T05:21:21;5.43;;;4.53;;
16254;SDS011;8235;52.198;9.904;2022-07-22T05:23:48;5.37;;;4.87;;
16254;SDS011;8235;52.198;9.904;2022-07-22T05:26:14;5.17;;;4.50;;
16254;SDS011;8235;52.198;9.904;2022-07-22T05:28:41;5.20;;;4.70;;
16254;SDS011;8235;52.198;9.904;2022-07-22T05:31:07;7.57;;;5.23;;
16254;SDS011;8235;52.198;9.904;2022-07-22T05:33:34;6.70;;;5.43;;
16254;SDS011;8235;52.198;9.904;2022-07-22T05:36:00;6.43;;;5.23;;
16254;SDS011;8235;52.198;9.904;2022-07-22T05:38:30;5.63;;;5.23;;
16254;SDS011;8235;52.198;9.904;2022-07-22T05:40:57;5.67;;;5.13;;
16254;SDS011;8235;52.198;9.904;2022-07-22T05:43:24;5.33;;;4.03;;
16254;SDS011;8235;52.198;9.904;2022-07-22T05:45:51;5.30;;;3.80;;
16254;SDS011;8235;52.198;9.904;2022-07-22T05:48:17;4.70;;;3.60;;
16254;SDS011;8235;52.198;9.904;2022-07-22T05:50:44;6.00;;;3.90;;
16254;SDS011;8235;52.198;9.904;2022-07-22T05:53:10;4.13;;;3.83;;
16254;SDS011;8235;52.198;9.904;2022-07-22T05:55:38;3.30;;;3.00;;
16254;SDS011;8235;52.198;9.904;2022-07-22T05:58:05;3.77;;;3.47;;
16254;SDS011;8235;52.198;9.904;2022-07-22T06:00:31;3.97;;;3.27;;
16254;SDS011;8235;52.198;9.904;2022-07-22T06:02:58;3.07;;;2.80;;
16254;SDS011;8235;52.198;9.904;2022-07-22T06:05:25;3.30;;;3.10;;
16254;SDS011;8235;52.198;9.904;2022-07-22T06:07:51;3.63;;;3.13;;
16254;SDS011;8235;52.198;9.904;2022-07-22T06:10:18;4.47;;;3.13;;
16254;SDS011;8235;52.198;9.904;2022-07-22T06:12:46;3.03;;;2.73;;
16254;SDS011;8235;52.198;9.904;2022-07-22T06:15:12;4.20;;;2.60;;
16254;SDS011;8235;52.198;9.904;2022-07-22T06:17:39;2.57;;;2.37;;
16254;SDS011;8235;52.198;9.904;2022-07-22T06:20:05;4.23;;;2.50;;
16254;SDS011;8235;52.198;9.904;2022-07-22T06:22:32;4.93;;;2.40;;
16254;SDS011;8235;52.198;9.904;2022-07-22T06:24:59;3.60;;;2.40;;
16254;SDS011;8235;52.198;9.904;2022-07-22T06:27:25;3.93;;;2.33;;
16254;SDS011;8235;52.198;9.904;2022-07-22T06:29:53;3.17;;;2.50;;
16254;SDS011;8235;52.198;9.904;2022-07-22T06:32:20;3.30;;;2.40;;
16254;SDS011;8235;52.198;9.904;2022-07-22T06:34:46;3.90;;;2.30;;
16254;SDS011;8235;52.198;9.904;2022-07-22T06:37:13;4.97;;;2.33;;
16254;SDS011;8235;52.198;9.904;2022-07-22T06:39:39;2.73;;;1.93;;
16254;SDS011;8235;52.198;9.904;2022-07-22T06:42:06;3.27;;;2.10;;
16254;SDS011;8235;52.198;9.904;2022-07-22T06:44:33;2.30;;;2.00;;
16254;SDS011;8235;52.198;9.904;2022-07-22T06:47:01;4.80;;;2.20;;
16254;SDS011;8235;52.198;9.904;2022-07-22T06:49:27;3.27;;;2.40;;
16254;SDS011;8235;52.198;9.904;2022-07-22T06:51:54;6.17;;;2.93;;
16254;SDS011;8235;52.198;9.904;2022-07-22T06:54:20;3.87;;;3.50;;
16254;SDS011;8235;52.198;9.904;2022-07-22T06:56:47;4.27;;;3.93;;
16254;SDS011;8235;52.198;9.904;2022-07-22T06:59:13;4.80;;;3.73;;
16254;SDS011;8235;52.198;9.904;2022-07-22T07:01:40;5.80;;;3.90;;
16254;SDS011;8235;52.198;9.904;2022-07-22T07:04:08;4.47;;;4.07;;
16254;SDS011;8235;52.198;9.904;2022-07-22T07:06:34;4.83;;;4.17;;
16254;SDS011;8235;52.198;9.904;2022-07-22T07:09:01;4.50;;;3.30;;
16254;SDS011;8235;52.198;9.904;2022-07-22T07:11:28;5.53;;;3.10;;
16254;SDS011;8235;52.198;9.904;2022-07-22T07:13:54;5.53;;;3.43;;
16254;SDS011;8235;52.198;9.904;2022-07-22T07:16:21;4.40;;;3.40;;
16254;SDS011;8235;52.198;9.904;2022-07-22T07:18:47;4.57;;;2.90;;
16254;SDS011;8235;52.198;9.904;2022-07-22T07:21:15;4.43;;;3.30;;
16254;SDS011;8235;52.198;9.904;2022-07-22T07:23:42;5.67;;;3.03;;
16254;SDS011;8235;52.198;9.904;2022-07-22T07:26:08;3.60;;;2.93;;
16254;SDS011;8235;52.198;9.904;2022-07-22T07:28:35;3.97;;;3.57;;
16254;SDS011;8235;52.198;9.904;2022-07-22T07:31:02;5.23;;;3.60;;
16254;SDS011;8235;52.198;9.904;2022-07-22T07:33:29;5.33;;;3.93;;
16254;SDS011;8235;52.198;9.904;2022-07-22T07:35:55;4.17;;;3.30;;
16254;SDS011;8235;52.198;9.904;2022-07-22T07:38:23;5.03;;;3.80;;
16254;SDS011;8235;52.198;9.904;2022-07-22T07:40:50;3.70;;;3.40;;
16254;SDS011;8235;52.198;9.904;2022-07-22T07:43:16;7.13;;;3.77;;
16254;SDS011;8235;52.198;9.904;2022-07-22T07:45:43;3.83;;;3.50;;
16254;SDS011;8235;52.198;9.904;2022-07-22T07:48:09;4.63;;;3.23;;
16254;SDS011;8235;52.198;9.904;2022-07-22T07:50:36;4.63;;;3.73;;
16254;SDS011;8235;52.198;9.904;2022-07-22T07:53:03;5.03;;;3.60;;
16254;SDS011;8235;52.198;9.904;2022-07-22T07:55:30;5.63;;;3.80;;
16254;SDS011;8235;52.198;9.904;2022-07-22T07:58:01;3.70;;;3.37;;
16254;SDS011;8235;52.198;9.904;2022-07-22T08:00:27;2.97;;;2.67;;
16254;SDS011;8235;52.198;9.904;2022-07-22T08:02:57;3.50;;;2.70;;
16254;SDS011;8235;52.198;9.904;2022-07-22T08:05:24;3.00;;;2.47;;
16254;SDS011;8235;52.198;9.904;2022-07-22T08:07:51;2.43;;;1.93;;
16254;SDS011;8235;52.198;9.904;2022-07-22T08:10:18;3.13;;;2.00;;
16254;SDS011;8235;52.198;9.904;2022-07-22T08:12:46;3.27;;;2.20;;
16254;SDS011;8235;52.198;9.904;2022-07-22T08:15:13;3.13;;;1.80;;
16254;SDS011;8235;52.198;9.904;2022-07-22T08:17:40;5.17;;;2.00;;
16254;SDS011;8235;52.198;9.904;2022-07-22T08:20:07;1.67;;;1.57;;
16254;SDS011;8235;52.198;9.904;2022-07-22T08:22:34;1.77;;;1.43;;
16254;SDS011;8235;52.198;9.904;2022-07-22T08:25:01;2.03;;;1.60;;
16254;SDS011;8235;52.198;9.904;2022-07-22T08:27:27;2.30;;;1.33;;
16254;SDS011;8235;52.198;9.904;2022-07-22T08:29:55;2.70;;;1.60;;
16254;SDS011;8235;52.198;9.904;2022-07-22T08:32:22;2.10;;;1.50;;
16254;SDS011;8235;52.198;9.904;2022-07-22T08:34:48;2.43;;;1.30;;
16254;SDS011;8235;52.198;9.904;2022-07-22T08:37:16;1.73;;;1.47;;
16254;SDS011;8235;52.198;9.904;2022-07-22T08:39:43;1.63;;;1.40;;
16254;SDS011;8235;52.198;9.904;2022-07-22T08:42:10;2.10;;;1.50;;
16254;SDS011;8235;52.198;9.904;2022-07-22T08:44:38;1.97;;;1.60;;
16254;SDS011;8235;52.198;9.904;2022-07-22T08:47:07;3.20;;;2.27;;
16254;SDS011;8235;52.198;9.904;2022-07-22T08:49:33;3.43;;;1.80;;
16254;SDS011;8235;52.198;9.904;2022-07-22T08:52:00;2.83;;;2.53;;
16254;SDS011;8235;52.198;9.904;2022-07-22T08:54:27;3.70;;;2.20;;
16254;SDS011;8235;52.198;9.904;2022-07-22T08:56:53;3.77;;;2.43;;
16254;SDS011;8235;52.198;9.904;2022-07-22T08:59:20;4.30;;;2.47;;
16254;SDS011;8235;52.198;9.904;2022-07-22T09:02:03;5.73;;;2.50;;
16254;SDS011;8235;52.198;9.904;2022-07-22T09:04:32;3.60;;;2.43;;
16254;SDS011;8235;52.198;9.904;2022-07-22T09:07:22;3.73;;;2.47;;
16254;SDS011;8235;52.198;9.904;2022-07-22T09:09:49;4.63;;;2.37;;
16254;SDS011;8235;52.198;9.904;2022-07-22T09:12:16;2.27;;;2.07;;
16254;SDS011;8235;52.198;9.904;2022-07-22T09:14:43;2.43;;;2.00;;
16254;SDS011;8235;52.198;9.904;2022-07-22T09:17:24;4.07;;;1.50;;
16254;SDS011;8235;52.198;9.904;2022-07-22T09:19:53;3.87;;;1.70;;
16254;SDS011;8235;52.198;9.904;2022-07-22T09:22:37;3.10;;;1.60;;
16254;SDS011;8235;52.198;9.904;2022-07-22T09:25:21;3.70;;;1.73;;
16254;SDS011;8235;52.198;9.904;2022-07-22T09:27:54;3.07;;;1.80;;
16254;SDS011;8235;52.198;9.904;2022-07-22T09:30:36;2.27;;;1.90;;
16254;SDS011;8235;52.198;9.904;2022-07-22T09:33:04;4.30;;;2.10;;
16254;SDS011;8235;52.198;9.904;2022-07-22T09:35:33;3.90;;;2.10;;
16254;SDS011;8235;52.198;9.904;2022-07-22T09:38:01;4.03;;;2.50;;
16254;SDS011;8235;52.198;9.904;2022-07-22T09:40:30;2.87;;;2.00;;
16254;SDS011;8235;52.198;9.904;2022-07-22T09:43:00;3.07;;;2.07;;
16254;SDS011;8235;52.198;9.904;2022-07-22T09:45:27;2.13;;;1.87;;
16254;SDS011;8235;52.198;9.904;2022-07-22T09:47:56;3.70;;;2.67;;
16254;SDS011;8235;52.198;9.904;2022-07-22T09:50:24;2.93;;;2.00;;
16254;SDS011;8235;52.198;9.904;2022-07-22T09:52:54;3.80;;;1.90;;
16254;SDS011;8235;52.198;9.904;2022-07-22T09:55:23;2.90;;;1.93;;
16254;SDS011;8235;52.198;9.904;2022-07-22T09:57:51;2.13;;;1.70;;
16254;SDS011;8235;52.198;9.904;2022-07-22T10:00:20;3.13;;;1.93;;
16254;SDS011;8235;52.198;9.904;2022-07-22T10:02:49;2.53;;;2.03;;
16254;SDS011;8235;52.198;9.904;2022-07-22T10:05:18;1.83;;;1.67;;
16254;SDS011;8235;52.198;9.904;2022-07-22T10:07:46;2.37;;;1.70;;
16254;SDS011;8235;52.198;9.904;2022-07-22T10:10:17;2.77;;;2.13;;
16254;SDS011;8235;52.198;9.904;2022-07-22T10:12:45;3.77;;;2.23;;
16254;SDS011;8235;52.198;9.904;2022-07-22T10:15:14;2.83;;;2.37;;
16254;SDS011;8235;52.198;9.904;2022-07-22T10:17:43;3.20;;;2.20;;
16254;SDS011;8235;52.198;9.904;2022-07-22T10:20:11;3.47;;;2.63;;
16254;SDS011;8235;52.198;9.904;2022-07-22T10:22:48;3.10;;;2.10;;
16254;SDS011;8235;52.198;9.904;2022-07-22T10:25:17;2.73;;;2.10;;
16254;SDS011;8235;52.198;9.904;2022-07-22T10:27:45;2.17;;;1.97;;
16254;SDS011;8235;52.198;9.904;2022-07-22T10:30:14;4.07;;;2.87;;
16254;SDS011;8235;52.198;9.904;2022-07-22T10:32:42;2.30;;;1.80;;
16254;SDS011;8235;52.198;9.904;2022-07-22T10:35:19;3.20;;;1.87;;
16254;SDS011;8235;52.198;9.904;2022-07-22T10:37:48;2.13;;;1.67;;
16254;SDS011;8235;52.198;9.904;2022-07-22T10:40:19;2.20;;;1.90;;
16254;SDS011;8235;52.198;9.904;2022-07-22T10:43:03;2.47;;;1.97;;
16254;SDS011;8235;52.198;9.904;2022-07-22T10:45:35;1.70;;;1.50;;
16254;SDS011;8235;52.198;9.904;2022-07-22T10:48:05;2.00;;;1.60;;
16254;SDS011;8235;52.198;9.904;2022-07-22T10:53:41;1.60;;;1.50;;
16254;SDS011;8235;52.198;9.904;2022-07-22T10:56:15;1.85;;;1.73;;
16254;SDS011;8235;52.198;9.904;2022-07-22T10:58:44;1.63;;;1.52;;
16254;SDS011;8235;52.198;9.904;2022-07-22T11:01:13;1.70;;;1.48;;
16254;SDS011;8235;52.198;9.904;2022-07-22T11:03:43;2.33;;;1.52;;
16254;SDS011;8235;52.198;9.904;2022-07-22T11:06:15;2.80;;;1.27;;
16254;SDS011;8235;52.198;9.904;2022-07-22T11:08:47;2.05;;;1.30;;
16254;SDS011;8235;52.198;9.904;2022-07-22T11:11:16;1.30;;;1.20;;
16254;SDS011;8235;52.198;9.904;2022-07-22T11:13:44;1.92;;;1.25;;
16254;SDS011;8235;52.198;9.904;2022-07-22T11:16:15;2.05;;;1.40;;
16254;SDS011;8235;52.198;9.904;2022-07-22T11:18:49;1.67;;;1.52;;
16254;SDS011;8235;52.198;9.904;2022-07-22T11:21:18;2.20;;;1.70;;
16254;SDS011;8235;52.198;9.904;2022-07-22T11:23:48;2.53;;;1.63;;
16254;SDS011;8235;52.198;9.904;2022-07-22T11:26:17;1.77;;;1.40;;
16254;SDS011;8235;52.198;9.904;2022-07-22T11:28:45;2.47;;;1.80;;
16254;SDS011;8235;52.198;9.904;2022-07-22T11:31:14;6.05;;;2.40;;
16254;SDS011;8235;52.198;9.904;2022-07-22T11:33:41;3.72;;;2.63;;
16254;SDS011;8235;52.198;9.904;2022-07-22T11:36:09;4.82;;;2.65;;
16254;SDS011;8235;52.198;9.904;2022-07-22T11:38:39;5.03;;;2.65;;
16254;SDS011;8235;52.198;9.904;2022-07-22T11:41:07;5.20;;;2.33;;
16254;SDS011;8235;52.198;9.904;2022-07-22T11:43:39;2.55;;;2.13;;
16254;SDS011;8235;52.198;9.904;2022-07-22T11:46:09;3.15;;;2.50;;
16254;SDS011;8235;52.198;9.904;2022-07-22T11:48:36;4.57;;;2.42;;
16254;SDS011;8235;52.198;9.904;2022-07-22T11:51:04;3.33;;;2.28;;
16254;SDS011;8235;52.198;9.904;2022-07-22T11:53:32;4.57;;;2.78;;
16254;SDS011;8235;52.198;9.904;2022-07-22T11:56:00;4.13;;;2.72;;
16254;SDS011;8235;52.198;9.904;2022-07-22T11:58:39;3.00;;;2.30;;
16254;SDS011;8235;52.198;9.904;2022-07-22T12:01:07;3.85;;;2.55;;
16254;SDS011;8235;52.198;9.904;2022-07-22T12:03:35;4.38;;;2.70;;
16254;SDS011;8235;52.198;9.904;2022-07-22T12:06:03;4.35;;;3.00;;
16254;SDS011;8235;52.198;9.904;2022-07-22T12:08:32;5.15;;;3.00;;
16254;SDS011;8235;52.198;9.904;2022-07-22T12:10:59;4.05;;;2.83;;
16254;SDS011;8235;52.198;9.904;2022-07-22T12:13:29;4.70;;;3.08;;
16254;SDS011;8235;52.198;9.904;2022-07-22T12:15:58;4.50;;;2.78;;
16254;SDS011;8235;52.198;9.904;2022-07-22T12:18:25;4.18;;;2.78;;
16254;SDS011;8235;52.198;9.904;2022-07-22T12:20:54;5.80;;;2.92;;
16254;SDS011;8235;52.198;9.904;2022-07-22T12:23:22;4.90;;;2.80;;
16254;SDS011;8235;52.198;9.904;2022-07-22T12:25:52;6.68;;;3.22;;
16254;SDS011;8235;52.198;9.904;2022-07-22T12:28:20;4.22;;;2.92;;
16254;SDS011;8235;52.198;9.904;2022-07-22T12:30:47;4.70;;;2.83;;
16254;SDS011;8235;52.198;9.904;2022-07-22T12:33:17;4.13;;;2.58;;
16254;SDS011;8235;52.198;9.904;2022-07-22T12:35:44;5.30;;;2.92;;
16254;SDS011;8235;52.198;9.904;2022-07-22T12:38:24;3.33;;;2.55;;
16254;SDS011;8235;52.198;9.904;2022-07-22T12:40:50;2.90;;;2.47;;
16254;SDS011;8235;52.198;9.904;2022-07-22T12:43:17;4.88;;;3.03;;
16254;SDS011;8235;52.198;9.904;2022-07-22T12:45:50;4.50;;;2.83;;
16254;SDS011;8235;52.198;9.904;2022-07-22T12:48:19;3.67;;;2.60;;
16254;SDS011;8235;52.198;9.904;2022-07-22T12:50:53;3.83;;;2.60;;
16254;SDS011;8235;52.198;9.904;2022-07-22T12:53:21;6.57;;;3.20;;
16254;SDS011;8235;52.198;9.904;2022-07-22T12:55:49;5.38;;;3.05;;
16254;SDS011;8235;52.198;9.904;2022-07-22T12:58:17;4.50;;;3.00;;
16254;SDS011;8235;52.198;9.904;2022-07-22T13:00:44;4.77;;;3.03;;
16254;SDS011;8235;52.198;9.904;2022-07-22T13:03:12;5.27;;;3.00;;
16254;SDS011;8235;52.198;9.904;2022-07-22T13:05:40;10.63;;;3.33;;
16254;SDS011;8235;52.198;9.904;2022-07-22T13:08:07;4.10;;;3.70;;
16254;SDS011;8235;52.198;9.904;2022-07-22T13:10:33;4.60;;;3.47;;
16254;SDS011;8235;52.198;9.904;2022-07-22T13:13:00;5.53;;;3.85;;
16254;SDS011;8235;52.198;9.904;2022-07-22T13:15:26;4.95;;;3.08;;
16254;SDS011;8235;52.198;9.904;2022-07-22T13:17:53;5.40;;;2.97;;
16254;SDS011;8235;52.198;9.904;2022-07-22T13:20:19;4.85;;;3.20;;
16254;SDS011;8235;52.198;9.904;2022-07-22T13:22:48;3.60;;;2.70;;
16254;SDS011;8235;52.198;9.904;2022-07-22T13:25:15;5.13;;;2.70;;
16254;SDS011;8235;52.198;9.904;2022-07-22T13:27:42;4.15;;;3.13;;
16254;SDS011;8235;52.198;9.904;2022-07-22T13:30:09;6.60;;;2.65;;
16254;SDS011;8235;52.198;9.904;2022-07-22T13:32:36;4.70;;;3.13;;
16254;SDS011;8235;52.198;9.904;2022-07-22T13:35:03;6.72;;;3.25;;
16254;SDS011;8235;52.198;9.904;2022-07-22T13:37:30;6.28;;;2.72;;
16254;SDS011;8235;52.198;9.904;2022-07-22T13:39:58;5.60;;;3.08;;
16254;SDS011;8235;52.198;9.904;2022-07-22T13:42:24;4.80;;;3.00;;
16254;SDS011;8235;52.198;9.904;2022-07-22T13:44:51;6.32;;;3.05;;
16254;SDS011;8235;52.198;9.904;2022-07-22T13:47:19;4.28;;;2.50;;
16254;SDS011;8235;52.198;9.904;2022-07-22T13:49:47;4.40;;;2.27;;
16254;SDS011;8235;52.198;9.904;2022-07-22T13:52:14;5.90;;;2.88;;
16254;SDS011;8235;52.198;9.904;2022-07-22T13:54:40;3.92;;;2.65;;
16254;SDS011;8235;52.198;9.904;2022-07-22T13:57:09;4.22;;;2.65;;
16254;SDS011;8235;52.198;9.904;2022-07-22T13:59:36;5.17;;;2.77;;
16254;SDS011;8235;52.198;9.904;2022-07-22T14:02:03;4.18;;;2.63;;
16254;SDS011;8235;52.198;9.904;2022-07-22T14:04:30;4.15;;;2.85;;
16254;SDS011;8235;52.198;9.904;2022-07-22T14:06:57;3.22;;;2.88;;
16254;SDS011;8235;52.198;9.904;2022-07-22T14:09:23;4.15;;;3.10;;
16254;SDS011;8235;52.198;9.904;2022-07-22T14:11:50;4.57;;;2.60;;
16254;SDS011;8235;52.198;9.904;2022-07-22T14:14:18;6.10;;;2.97;;
16254;SDS011;8235;52.198;9.904;2022-07-22T14:16:44;6.13;;;3.13;;
16254;SDS011;8235;52.198;9.904;2022-07-22T14:19:11;7.05;;;3.38;;
16254;SDS011;8235;52.198;9.904;2022-07-22T14:21:40;3.30;;;2.80;;
16254;SDS011;8235;52.198;9.904;2022-07-22T14:24:08;5.35;;;3.25;;
16254;SDS011;8235;52.198;9.904;2022-07-22T14:26:35;4.88;;;3.20;;
16254;SDS011;8235;52.198;9.904;2022-07-22T14:29:02;3.63;;;2.83;;
16254;SDS011;8235;52.198;9.904;2022-07-22T14:31:31;3.95;;;2.90;;
16254;SDS011;8235;52.198;9.904;2022-07-22T14:33:58;4.28;;;3.53;;
16254;SDS011;8235;52.198;9.904;2022-07-22T14:36:24;6.95;;;3.22;;
16254;SDS011;8235;52.198;9.904;2022-07-22T14:38:51;8.65;;;3.40;;
16254;SDS011;8235;52.198;9.904;2022-07-22T14:41:18;6.03;;;3.08;;
16254;SDS011;8235;52.198;9.904;2022-07-22T14:43:45;5.68;;;2.75;;
16254;SDS011;8235;52.198;9.904;2022-07-22T14:46:12;5.70;;;3.17;;
16254;SDS011;8235;52.198;9.904;2022-07-22T14:48:40;4.70;;;3.13;;
16254;SDS011;8235;52.198;9.904;2022-07-22T14:51:07;5.28;;;3.05;;
16254;SDS011;8235;52.198;9.904;2022-07-22T14:53:33;4.10;;;3.15;;
16254;SDS011;8235;52.198;9.904;2022-07-22T14:56:00;7.38;;;3.00;;
16254;SDS011;8235;52.198;9.904;2022-07-22T14:58:26;4.95;;;2.97;;
16254;SDS011;8235;52.198;9.904;2022-07-22T15:00:53;4.72;;;3.10;;
16254;SDS011;8235;52.198;9.904;2022-07-22T15:03:20;5.18;;;2.90;;